Terminal Aerodrome Forecast
Issued by NWS Wilmington, NC

Home | Current Version | Previous Version | Text Only | Print | Product List | Glossary On
Versions: 1 2 3 4 5 6 7 8 9 10 11 12
610
FTUS42 KILM 270535
TAFLBT
TAF
KLBT 270535Z 2706/2806 00000KT P6SM SKC
     FM270800 00000KT 5SM BR FEW060
      TEMPO 2708/2711 3SM BR
     FM271200 03001KT 4SM BR SKC
     FM271300 07004KT P6SM SKC
     FM271800 12007KT P6SM SCT050=

USA.gov is the U.S. government's official web portal to all federal, state and local government web resources and services.